Time;durP1;ratioP1;P1;durP2;ratioP2;P2;SDS_P1;SDS_P2;PMS_P1;PMS_P2;Temp;Humidity;BMP_temperature;BMP_pressure;BME280_temperature;BME280_humidity;BME280_pressure;Samples;Min_cycle;Max_cycle;Signal;HPM_P1;HPM_P2
2022/07/29 00:02:24;;;;;;;8.35;1.42;;;17.50;98.40;;;;;;4949793;28;20048;-51
2022/07/29 00:04:51;;;;;;;8.13;1.20;;;17.50;98.60;;;;;;4950088;28;20051;-53
2022/07/29 00:07:18;;;;;;;4.78;1.33;;;17.50;98.80;;;;;;4949825;28;20122;-50
2022/07/29 00:09:44;;;;;;;7.47;2.55;;;17.40;99.00;;;;;;4950100;28;20051;-54
2022/07/29 00:12:21;;;;;;;2.90;1.40;;;17.40;99.10;;;;;;4939042;29;20058;-52
2022/07/29 00:14:55;;;;;;;7.57;1.77;;;17.40;99.70;;;;;;4949974;28;20051;-53
2022/07/29 00:17:23;;;;;;;6.32;1.35;;;17.40;99.90;;;;;;4940432;29;20345;-49
2022/07/29 00:19:50;;;;;;;5.22;1.35;;;17.40;99.90;;;;;;4953867;28;20086;-54
2022/07/29 00:22:17;;;;;;;4.57;1.23;;;17.30;99.90;;;;;;4953651;28;20499;-50
2022/07/29 00:24:44;;;;;;;6.47;1.63;;;17.40;99.90;;;;;;4953162;28;20047;-51
2022/07/29 00:27:10;;;;;;;10.43;1.67;;;17.40;99.90;;;;;;4609279;28;10000603;-53
2022/07/29 00:29:37;;;;;;;5.07;1.63;;;17.40;99.90;;;;;;4951702;28;20138;-53
2022/07/29 00:32:04;;;;;;;9.23;1.75;;;17.40;99.90;;;;;;4953659;28;20055;-53
2022/07/29 00:37:16;;;;;;;5.43;1.77;;;17.50;99.90;;;;;;4953634;28;20079;-54
2022/07/29 00:39:43;;;;;;;7.90;1.70;;;17.40;99.90;;;;;;4953370;28;20089;-53
2022/07/29 00:42:10;;;;;;;7.20;1.92;;;17.40;99.90;;;;;;4953527;28;20051;-52
2022/07/29 00:44:38;;;;;;;10.00;2.20;;;17.40;99.90;;;;;;4953258;28;20086;-51
2022/07/29 00:47:05;;;;;;;3.95;2.00;;;17.50;99.90;;;;;;4943112;29;20250;-53
2022/07/29 00:49:32;;;;;;;6.18;1.60;;;17.50;99.90;;;;;;4953210;28;20106;-53
2022/07/29 00:52:01;;;;;;;4.07;1.60;;;17.50;99.90;;;;;;4952506;29;20092;-52
2022/07/29 00:54:29;;;;;;;9.13;2.22;;;17.50;99.90;;;;;;4936152;29;20075;-52
2022/07/29 00:56:57;;;;;;;5.90;1.83;;;17.40;99.90;;;;;;4952261;29;20082;-51
2022/07/29 00:59:27;;;;;;;5.50;1.75;;;17.40;99.90;;;;;;4951941;29;20074;-52
2022/07/29 01:02:01;;;;;;;9.32;2.03;;;17.40;99.90;;;;;;4952727;29;20125;-52
2022/07/29 01:04:29;;;;;;;15.82;4.32;;;17.40;99.90;;;;;;4952953;28;20167;-54
2022/07/29 01:06:56;;;;;;;8.48;2.22;;;17.40;99.90;;;;;;4952891;28;20055;-56
2022/07/29 01:09:23;;;;;;;3.90;1.80;;;17.40;99.90;;;;;;4952892;28;20101;-48
2022/07/29 01:12:10;;;;;;;6.22;1.70;;;17.40;99.90;;;;;;4951700;29;20051;-52
2022/07/29 01:14:36;;;;;;;6.20;2.00;;;17.40;99.90;;;;;;4951772;29;20087;-54
2022/07/29 01:17:28;;;;;;;5.88;2.25;;;17.40;99.90;;;;;;4935829;29;20061;-54
2022/07/29 01:20:06;;;;;;;8.18;2.03;;;17.40;99.90;;;;;;4952647;28;20487;-51
2022/07/29 01:23:03;;;;;;;4.43;1.77;;;17.40;99.90;;;;;;4951342;29;20094;-55
2022/07/29 01:25:55;;;;;;;4.78;2.30;;;17.30;99.90;;;;;;4948011;29;20065;-51
2022/07/29 01:28:49;;;;;;;5.63;2.20;;;17.40;99.90;;;;;;4950511;28;20537;-52
2022/07/29 01:31:22;;;;;;;4.53;1.73;;;17.40;99.90;;;;;;4951438;29;20047;-52
2022/07/29 01:33:57;;;;;;;4.43;2.63;;;17.40;99.90;;;;;;4951499;29;20526;-53
2022/07/29 01:36:43;;;;;;;7.85;2.40;;;17.50;99.90;;;;;;4951020;29;20129;-49
2022/07/29 01:39:18;;;;;;;6.97;1.90;;;17.50;99.90;;;;;;4951431;29;20131;-51
2022/07/29 01:41:56;;;;;;;4.85;1.80;;;17.50;99.90;;;;;;4950867;29;20126;-54
2022/07/29 01:44:31;;;;;;;9.52;2.22;;;17.50;99.90;;;;;;4932405;29;20083;-51
2022/07/29 01:46:58;;;;;;;5.75;2.15;;;17.40;99.90;;;;;;4933524;29;20047;-53
2022/07/29 01:49:30;;;;;;;6.18;2.08;;;17.40;99.90;;;;;;4932309;29;20048;-51
2022/07/29 01:52:11;;;;;;;8.30;2.00;;;17.40;99.90;;;;;;4966557;28;20086;-55
2022/07/29 01:54:42;;;;;;;4.53;1.75;;;17.40;99.90;;;;;;4951223;29;20529;-54
2022/07/29 01:57:14;;;;;;;6.68;2.28;;;17.40;99.90;;;;;;4949726;29;20142;-53
2022/07/29 01:59:41;;;;;;;4.85;1.65;;;17.40;99.90;;;;;;4952266;28;20079;-55
2022/07/29 02:02:08;;;;;;;8.10;2.15;;;17.40;99.90;;;;;;4934226;29;20130;-53
2022/07/29 02:04:36;;;;;;;5.57;1.98;;;17.40;99.90;;;;;;4935135;29;20055;-54
2022/07/29 02:07:05;;;;;;;6.80;2.40;;;17.40;99.90;;;;;;4950546;29;20766;-54
2022/07/29 02:09:33;;;;;;;4.80;2.25;;;17.40;99.90;;;;;;4950874;29;20086;-54
2022/07/29 02:12:01;;;;;;;12.32;2.45;;;17.30;99.90;;;;;;4951817;28;20126;-54
2022/07/29 02:14:31;;;;;;;6.10;2.03;;;17.30;99.90;;;;;;4950540;29;20045;-50
2022/07/29 02:16:57;;;;;;;5.03;1.90;;;17.20;99.90;;;;;;4950600;29;20579;-53
2022/07/29 02:19:24;;;;;;;5.13;1.90;;;17.20;99.90;;;;;;4951728;29;20043;-53
2022/07/29 02:21:51;;;;;;;7.35;2.25;;;17.20;99.90;;;;;;4950645;29;20336;-57
2022/07/29 02:24:18;;;;;;;10.38;2.10;;;17.20;99.90;;;;;;4931860;29;20223;-49
2022/07/29 02:26:45;;;;;;;6.72;1.83;;;17.20;99.90;;;;;;4951537;28;20391;-50
2022/07/29 02:29:12;;;;;;;2.45;1.63;;;17.10;99.90;;;;;;4950219;29;20142;-53
2022/07/29 02:31:38;;;;;;;6.88;2.13;;;17.10;99.90;;;;;;4950487;29;20139;-51
2022/07/29 02:34:08;;;;;;;4.85;2.08;;;17.10;99.90;;;;;;4950480;29;20040;-52
2022/07/29 02:36:34;;;;;;;5.88;2.10;;;17.00;99.90;;;;;;4950287;29;20090;-52
2022/07/29 02:39:01;;;;;;;8.68;1.90;;;17.00;99.90;;;;;;4950217;28;20043;-53
2022/07/29 02:41:30;;;;;;;2.80;1.50;;;17.00;99.90;;;;;;4950572;28;20090;-53
2022/07/29 02:43:59;;;;;;;4.60;1.90;;;16.90;99.90;;;;;;4950221;29;20153;-53
2022/07/29 02:46:30;;;;;;;4.85;1.60;;;16.80;99.90;;;;;;4931498;29;20126;-52
2022/07/29 02:49:15;;;;;;;5.55;1.48;;;16.70;99.90;;;;;;4932302;29;20110;-51
2022/07/29 02:52:02;;;;;;;24.95;5.75;;;16.50;99.90;;;;;;4949970;29;20078;-52
2022/07/29 02:54:44;;;;;;;5.10;1.83;;;16.40;99.90;;;;;;4948203;29;20473;-53
2022/07/29 02:57:33;;;;;;;8.68;2.40;;;16.30;99.90;;;;;;4949727;29;20418;-52
2022/07/29 03:00:04;;;;;;;5.93;1.50;;;16.30;99.90;;;;;;4943287;29;20139;-48
2022/07/29 03:02:33;;;;;;;8.23;2.30;;;16.30;99.90;;;;;;4949718;29;20091;-54
2022/07/29 03:05:00;;;;;;;5.30;2.00;;;16.30;99.90;;;;;;4949846;29;20122;-52
2022/07/29 03:07:27;;;;;;;5.88;1.77;;;16.20;99.90;;;;;;4933349;29;20062;-54
2022/07/29 03:09:54;;;;;;;7.18;1.70;;;16.10;99.90;;;;;;4950668;28;20102;-51
2022/07/29 03:12:21;;;;;;;4.35;1.70;;;16.00;99.90;;;;;;4949555;29;20138;-52
2022/07/29 03:14:48;;;;;;;8.60;2.30;;;16.00;99.90;;;;;;4950865;28;20350;-53
2022/07/29 03:17:15;;;;;;;3.08;1.65;;;15.90;99.90;;;;;;4949730;29;20093;-53
2022/07/29 03:19:42;;;;;;;8.00;2.30;;;15.90;99.90;;;;;;4949265;29;20085;-54
2022/07/29 03:22:08;;;;;;;8.18;2.03;;;15.80;99.90;;;;;;4950808;28;20130;-51
2022/07/29 03:24:36;;;;;;;7.55;1.90;;;15.80;99.90;;;;;;4949402;29;20090;-52
2022/07/29 03:27:03;;;;;;;7.82;2.05;;;15.70;99.90;;;;;;4950999;28;20050;-51
2022/07/29 03:29:31;;;;;;;5.13;1.90;;;15.70;99.90;;;;;;4950019;28;20494;-52
2022/07/29 03:32:03;;;;;;;5.57;2.00;;;15.70;99.90;;;;;;4949796;28;20330;-53
2022/07/29 03:34:34;;;;;;;7.97;1.85;;;15.70;99.90;;;;;;4950189;28;20502;-52
2022/07/29 03:37:01;;;;;;;6.53;1.52;;;15.60;99.90;;;;;;4950316;28;20097;-48
2022/07/29 03:39:29;;;;;;;3.90;2.33;;;15.50;99.90;;;;;;4950129;28;20553;-53
2022/07/29 03:41:56;;;;;;;8.57;2.08;;;15.40;99.90;;;;;;4950225;28;20085;-52
2022/07/29 03:44:23;;;;;;;6.30;2.00;;;15.30;99.90;;;;;;4948916;29;20079;-50
2022/07/29 03:46:50;;;;;;;8.15;1.92;;;15.20;99.90;;;;;;4948981;29;20058;-49
2022/07/29 03:49:17;;;;;;;9.77;2.28;;;15.20;99.90;;;;;;4948996;29;20498;-52
2022/07/29 03:51:44;;;;;;;5.85;1.85;;;15.20;99.90;;;;;;4917207;29;20538;-54
2022/07/29 03:54:11;;;;;;;3.45;1.80;;;15.20;99.90;;;;;;4949260;29;20043;-52
2022/07/29 03:56:42;;;;;;;6.15;2.13;;;15.20;99.90;;;;;;4950023;28;20090;-51
2022/07/29 03:59:09;;;;;;;2.35;1.50;;;15.20;99.90;;;;;;4949072;29;20119;-56
2022/07/29 04:01:36;;;;;;;4.35;1.85;;;15.10;99.90;;;;;;4948490;29;20055;-51
2022/07/29 04:04:04;;;;;;;5.57;2.53;;;15.00;99.90;;;;;;4947225;29;20043;-54
2022/07/29 04:06:45;;;;;;;5.65;1.80;;;15.00;99.90;;;;;;4929919;29;20540;-53
2022/07/29 04:09:14;;;;;;;8.93;1.80;;;14.90;99.90;;;;;;4948849;29;20126;-56
2022/07/29 04:11:41;;;;;;;7.13;1.90;;;14.90;99.90;;;;;;4948555;29;20050;-53
2022/07/29 04:14:27;;;;;;;4.90;1.77;;;14.90;99.90;;;;;;4949936;28;20494;-52
2022/07/29 04:16:55;;;;;;;5.40;1.63;;;15.00;99.90;;;;;;4950217;28;20074;-48
2022/07/29 04:19:22;;;;;;;3.70;2.03;;;15.00;99.90;;;;;;4950278;28;20126;-50
2022/07/29 04:21:49;;;;;;;6.68;2.42;;;15.00;99.90;;;;;;4949945;28;20055;-50
2022/07/29 04:24:16;;;;;;;5.18;1.95;;;14.90;99.90;;;;;;4948848;29;20078;-53
2022/07/29 04:26:45;;;;;;;5.07;1.90;;;14.90;99.90;;;;;;4950047;28;20106;-53
2022/07/29 04:29:11;;;;;;;5.05;2.08;;;14.80;99.90;;;;;;4949896;28;20055;-52
2022/07/29 04:31:38;;;;;;;3.47;1.50;;;14.80;99.90;;;;;;4949526;28;20047;-51
2022/07/29 04:34:05;;;;;;;3.65;2.22;;;14.80;99.90;;;;;;4949770;28;20130;-53
2022/07/29 04:36:32;;;;;;;5.22;2.45;;;14.70;99.90;;;;;;4949807;28;20138;-52
2022/07/29 04:39:00;;;;;;;7.57;2.28;;;14.70;99.90;;;;;;4949835;28;20043;-52
2022/07/29 04:41:28;;;;;;;8.02;2.55;;;14.70;99.90;;;;;;4949588;28;20081;-48
2022/07/29 04:44:00;;;;;;;7.72;2.17;;;14.70;99.90;;;;;;4949768;28;20047;-49
2022/07/29 04:46:27;;;;;;;8.80;2.65;;;14.80;99.90;;;;;;4949684;28;20044;-50
2022/07/29 04:48:54;;;;;;;6.28;1.95;;;14.80;99.90;;;;;;4949463;28;20055;-52
2022/07/29 04:51:21;;;;;;;7.25;1.80;;;14.90;99.90;;;;;;4949613;28;20214;-56
2022/07/29 04:53:48;;;;;;;7.53;2.65;;;14.90;99.90;;;;;;4949473;29;20135;-52
2022/07/29 04:56:15;;;;;;;7.55;2.55;;;14.90;99.90;;;;;;4949630;28;20051;-53
2022/07/29 04:58:42;;;;;;;6.30;2.05;;;14.90;99.90;;;;;;4949442;28;20098;-53
2022/07/29 05:01:08;;;;;;;6.72;2.80;;;14.90;99.90;;;;;;4949254;28;20093;-54
2022/07/29 05:03:35;;;;;;;6.38;2.40;;;14.90;99.90;;;;;;4950158;28;20565;-53
2022/07/29 05:06:02;;;;;;;6.18;2.50;;;14.90;99.90;;;;;;4953353;28;20106;-54
2022/07/29 05:08:29;;;;;;;8.52;2.65;;;14.90;99.90;;;;;;4952698;28;20470;-54
2022/07/29 05:10:56;;;;;;;6.78;2.28;;;15.00;99.90;;;;;;4953026;28;20074;-54
2022/07/29 05:13:23;;;;;;;3.97;1.95;;;15.00;99.90;;;;;;4951219;29;20047;-54
2022/07/29 05:15:50;;;;;;;6.72;2.65;;;15.00;99.90;;;;;;4952627;28;20051;-50
2022/07/29 05:18:16;;;;;;;4.55;2.38;;;15.00;99.90;;;;;;4952693;28;20081;-51
2022/07/29 05:20:43;;;;;;;6.43;2.33;;;15.00;99.90;;;;;;4952945;28;20406;-51
2022/07/29 05:23:12;;;;;;;7.32;2.17;;;15.00;99.90;;;;;;4952691;29;20086;-54
2022/07/29 05:25:39;;;;;;;7.85;2.42;;;15.10;99.90;;;;;;4952732;28;20410;-53
2022/07/29 05:28:11;;;;;;;7.25;1.90;;;15.20;99.90;;;;;;4952577;28;20098;-50
2022/07/29 05:30:38;;;;;;;7.65;1.85;;;15.20;99.90;;;;;;4952475;28;20430;-53
2022/07/29 05:33:04;;;;;;;6.03;2.03;;;15.30;99.90;;;;;;4952602;28;20081;-54
2022/07/29 05:35:32;;;;;;;8.50;2.75;;;15.40;99.90;;;;;;4952832;28;20786;-53
2022/07/29 05:37:59;;;;;;;5.28;2.92;;;15.40;99.90;;;;;;4952180;28;20051;-53
2022/07/29 05:40:25;;;;;;;7.80;2.38;;;15.40;99.90;;;;;;4952523;28;20231;-52
2022/07/29 05:42:52;;;;;;;8.38;2.40;;;15.50;99.90;;;;;;4952169;28;20051;-55
2022/07/29 05:45:19;;;;;;;8.57;3.22;;;15.50;99.90;;;;;;4952338;28;20070;-55
2022/07/29 05:47:46;;;;;;;4.32;2.13;;;15.70;99.90;;;;;;4952517;28;20065;-51
2022/07/29 05:50:13;;;;;;;7.93;2.83;;;15.90;99.90;;;;;;4952392;28;20107;-53
2022/07/29 05:52:40;;;;;;;6.93;2.28;;;16.00;99.90;;;;;;4952632;28;20094;-53
2022/07/29 05:55:07;;;;;;;11.55;2.63;;;16.20;99.90;;;;;;4951900;28;20047;-53
2022/07/29 05:57:34;;;;;;;7.97;2.65;;;16.30;99.90;;;;;;4952318;28;20086;-50
2022/07/29 06:00:01;;;;;;;10.60;3.00;;;16.40;99.90;;;;;;4951637;28;21352;-52
2022/07/29 06:02:28;;;;;;;11.40;2.63;;;16.50;99.90;;;;;;4951986;28;20503;-55
2022/07/29 06:04:54;;;;;;;7.57;2.83;;;16.50;99.90;;;;;;4951717;28;20051;-48
2022/07/29 06:07:21;;;;;;;10.35;2.80;;;16.70;99.90;;;;;;4952110;28;20047;-55
2022/07/29 06:09:48;;;;;;;12.35;3.15;;;16.70;99.90;;;;;;4951771;28;20414;-53
2022/07/29 06:12:15;;;;;;;11.68;2.33;;;16.90;99.90;;;;;;4951092;29;20130;-53
2022/07/29 06:14:42;;;;;;;13.63;2.65;;;17.00;99.90;;;;;;4951565;28;20131;-55
2022/07/29 06:17:11;;;;;;;4.35;2.10;;;17.10;99.90;;;;;;4951658;28;20134;-54
2022/07/29 06:19:38;;;;;;;5.93;2.63;;;17.30;99.90;;;;;;4951665;28;20345;-52
2022/07/29 06:22:05;;;;;;;5.15;2.63;;;17.30;99.90;;;;;;4951541;28;20138;-53
2022/07/29 06:24:31;;;;;;;9.65;2.38;;;17.50;99.90;;;;;;4950068;29;20143;-54
2022/07/29 06:26:58;;;;;;;14.85;2.90;;;17.50;99.90;;;;;;4951227;28;20476;-49
2022/07/29 06:29:25;;;;;;;10.07;2.30;;;17.70;99.90;;;;;;4951310;28;20086;-51
2022/07/29 06:31:52;;;;;;;9.57;3.25;;;17.70;99.90;;;;;;4951230;28;20509;-52
2022/07/29 06:34:19;;;;;;;10.13;3.40;;;17.80;99.90;;;;;;4951662;28;20047;-54
2022/07/29 06:36:46;;;;;;;7.95;2.28;;;18.00;99.90;;;;;;4951169;28;20047;-52
2022/07/29 06:39:14;;;;;;;9.95;2.35;;;18.10;99.90;;;;;;4951256;28;20062;-54
2022/07/29 06:41:41;;;;;;;13.85;2.97;;;18.20;99.90;;;;;;4950025;29;20498;-52
2022/07/29 06:44:08;;;;;;;12.50;2.67;;;18.30;99.90;;;;;;4949797;29;20477;-54
2022/07/29 06:46:34;;;;;;;13.32;2.35;;;18.40;99.90;;;;;;4950912;28;20133;-54
2022/07/29 06:49:02;;;;;;;10.35;2.42;;;18.60;99.90;;;;;;4951066;28;20043;-53
2022/07/29 06:51:29;;;;;;;8.40;2.08;;;18.70;99.90;;;;;;4949464;29;20470;-53
2022/07/29 06:53:57;;;;;;;6.70;1.90;;;18.80;99.90;;;;;;4951336;28;20127;-54
2022/07/29 06:56:32;;;;;;;6.93;2.05;;;18.80;99.90;;;;;;4950669;28;20059;-53
2022/07/29 06:59:05;;;;;;;10.95;2.22;;;18.90;99.90;;;;;;4948121;29;20474;-54
2022/07/29 07:01:32;;;;;;;7.20;3.42;;;19.00;99.90;;;;;;4950544;28;20090;-54
2022/07/29 07:03:59;;;;;;;14.57;3.08;;;19.10;99.90;;;;;;4949132;29;20049;-52
2022/07/29 07:06:26;;;;;;;13.25;2.13;;;19.10;99.90;;;;;;4950557;28;20101;-54
2022/07/29 07:08:53;;;;;;;9.43;2.00;;;19.10;99.90;;;;;;4950749;28;20089;-53
2022/07/29 07:11:20;;;;;;;9.25;2.15;;;19.30;99.90;;;;;;4950653;28;20075;-52
2022/07/29 07:13:46;;;;;;;15.35;2.58;;;19.30;99.90;;;;;;4950422;28;20047;-55
2022/07/29 07:16:13;;;;;;;13.00;2.13;;;19.30;99.90;;;;;;4950111;28;20075;-53
2022/07/29 07:18:40;;;;;;;11.88;2.70;;;19.40;99.90;;;;;;4950339;28;20047;-52
2022/07/29 07:21:07;;;;;;;5.32;2.30;;;19.40;99.90;;;;;;4950368;28;20147;-54
2022/07/29 07:23:34;;;;;;;11.27;2.03;;;19.50;99.90;;;;;;4950474;28;20043;-53
2022/07/29 07:26:00;;;;;;;9.70;2.30;;;19.50;99.90;;;;;;4950007;28;20078;-52
2022/07/29 07:28:27;;;;;;;14.68;2.83;;;19.40;99.90;;;;;;4950122;28;20043;-53
2022/07/29 07:30:54;;;;;;;6.88;1.90;;;19.40;99.90;;;;;;4949968;28;20055;-54
2022/07/29 07:33:21;;;;;;;11.32;2.80;;;19.30;99.90;;;;;;4949807;29;20051;-53
2022/07/29 07:35:50;;;;;;;7.75;2.35;;;19.30;99.90;;;;;;4950725;28;20047;-55
2022/07/29 07:38:17;;;;;;;7.38;2.10;;;19.30;99.90;;;;;;4950095;28;20126;-54
2022/07/29 07:40:46;;;;;;;10.00;2.28;;;19.30;99.90;;;;;;4950434;28;20071;-54
2022/07/29 07:43:15;;;;;;;13.15;2.35;;;19.20;99.90;;;;;;4949800;28;20051;-55
2022/07/29 07:45:42;;;;;;;9.80;1.95;;;19.30;99.90;;;;;;4950187;28;20134;-51
2022/07/29 07:48:10;;;;;;;13.55;3.42;;;19.30;99.90;;;;;;4949814;28;20138;-53
2022/07/29 07:50:37;;;;;;;10.80;2.70;;;19.40;99.90;;;;;;4949945;28;20558;-55
2022/07/29 07:53:03;;;;;;;8.60;2.28;;;19.40;99.90;;;;;;4950040;28;20143;-54
2022/07/29 07:55:30;;;;;;;11.60;2.42;;;19.40;99.90;;;;;;4949839;28;20089;-49
2022/07/29 07:58:17;;;;;;;9.52;2.35;;;19.50;99.90;;;;;;4949699;28;20129;-51
2022/07/29 08:00:44;;;;;;;7.82;2.45;;;19.60;99.90;;;;;;4950062;28;20148;-55
2022/07/29 08:03:13;;;;;;;8.45;2.28;;;19.60;99.90;;;;;;4950190;28;20071;-52
2022/07/29 08:05:43;;;;;;;10.13;3.22;;;19.70;99.90;;;;;;4949563;28;20290;-53
2022/07/29 08:08:09;;;;;;;15.52;2.47;;;19.70;99.90;;;;;;4949996;28;20098;-50
2022/07/29 08:13:23;;;;;;;10.00;2.67;;;19.90;99.90;;;;;;4938192;29;20086;-55
2022/07/29 08:16:00;;;;;;;11.45;2.55;;;19.90;99.90;;;;;;4948613;29;20459;-51
2022/07/29 08:18:28;;;;;;;16.38;3.10;;;19.90;99.90;;;;;;4937324;29;20086;-54
2022/07/29 08:20:55;;;;;;;8.10;1.75;;;19.90;99.90;;;;;;4949580;28;20142;-52
2022/07/29 08:23:22;;;;;;;4.47;1.48;;;19.90;99.20;;;;;;4949522;28;20074;-53
2022/07/29 08:25:51;;;;;;;9.60;2.03;;;20.00;99.00;;;;;;4949750;29;20077;-51
2022/07/29 08:28:20;;;;;;;7.95;2.05;;;19.90;99.30;;;;;;4947654;29;20035;-52
2022/07/29 08:30:51;;;;;;;10.73;2.83;;;20.00;98.60;;;;;;4949287;28;20070;-54
2022/07/29 08:33:18;;;;;;;10.05;3.13;;;20.10;98.40;;;;;;4949479;28;20142;-51
2022/07/29 08:35:45;;;;;;;5.68;1.73;;;20.20;98.60;;;;;;4949356;28;20110;-54
2022/07/29 08:38:12;;;;;;;6.22;1.95;;;20.20;98.40;;;;;;4949708;28;20118;-52
2022/07/29 08:40:39;;;;;;;8.60;1.95;;;20.20;97.70;;;;;;4952371;28;20097;-54
2022/07/29 08:43:07;;;;;;;9.15;4.78;;;20.10;96.40;;;;;;4953251;28;20092;-54
2022/07/29 08:45:44;;;;;;;14.18;1.88;;;20.10;97.40;;;;;;4952627;28;20135;-54
2022/07/29 08:48:15;;;;;;;8.60;1.75;;;20.20;96.30;;;;;;4943768;29;20051;-54
2022/07/29 08:50:42;;;;;;;6.72;1.52;;;20.30;95.80;;;;;;4952903;28;20586;-54
2022/07/29 08:53:13;;;;;;;2.42;1.10;;;20.40;95.70;;;;;;4951807;29;20294;-53
2022/07/29 08:55:44;;;;;;;4.28;1.73;;;20.40;95.00;;;;;;4952685;28;20102;-54
2022/07/29 08:58:10;;;;;;;7.00;1.90;;;20.40;94.70;;;;;;4953442;28;20070;-52
2022/07/29 09:00:51;;;;;;;7.78;1.90;;;20.50;95.00;;;;;;4951631;29;20091;-53
2022/07/29 09:03:24;;;;;;;12.18;2.40;;;20.50;93.20;;;;;;4952467;29;20368;-55
2022/07/29 09:05:51;;;;;;;7.65;1.98;;;20.60;94.40;;;;;;4936100;29;20535;-51
2022/07/29 09:08:18;;;;;;;10.85;2.08;;;20.70;94.10;;;;;;4951623;29;20187;-53
2022/07/29 09:10:46;;;;;;;11.02;2.17;;;20.70;93.70;;;;;;4932576;29;20137;-56
2022/07/29 09:13:12;;;;;;;11.85;2.42;;;20.80;93.80;;;;;;4966498;28;20110;-52
2022/07/29 09:15:39;;;;;;;5.57;1.98;;;20.80;93.30;;;;;;4952992;28;20055;-55
2022/07/29 09:18:06;;;;;;;9.98;2.33;;;20.80;93.40;;;;;;4952751;28;20087;-55
2022/07/29 09:23:41;;;;;;;14.17;3.30;;;21.00;93.50;;;;;;4951436;29;20106;-54
2022/07/29 09:26:08;;;;;;;10.40;2.65;;;21.10;93.50;;;;;;4952460;28;20380;-54
2022/07/29 09:28:34;;;;;;;5.75;1.85;;;21.30;93.00;;;;;;4952682;28;20051;-54
2022/07/29 09:31:02;;;;;;;9.63;2.20;;;21.30;92.50;;;;;;4932100;29;20083;-53
2022/07/29 09:33:34;;;;;;;10.75;2.55;;;21.30;92.30;;;;;;4948443;29;20541;-55
2022/07/29 09:36:05;;;;;;;2.53;1.52;;;21.40;91.30;;;;;;4952428;28;20043;-53
2022/07/29 09:38:33;;;;;;;10.50;1.92;;;21.40;91.00;;;;;;4952447;28;20219;-55
2022/07/29 09:41:01;;;;;;;8.57;1.73;;;21.50;91.10;;;;;;4952503;28;20047;-56
2022/07/29 09:43:31;;;;;;;5.13;2.38;;;21.50;90.50;;;;;;4950889;29;20422;-54
2022/07/29 09:46:11;;;;;;;9.35;2.88;;;21.60;90.30;;;;;;4952376;28;20054;-51
2022/07/29 09:48:38;;;;;;;7.75;3.25;;;21.70;89.20;;;;;;4945432;29;20051;-54
2022/07/29 09:51:06;;;;;;;8.32;1.90;;;21.90;89.90;;;;;;4950725;28;20043;-55
2022/07/29 09:53:33;;;;;;;5.30;1.55;;;22.00;86.60;;;;;;4931766;29;20087;-52
2022/07/29 09:56:01;;;;;;;14.90;1.88;;;22.00;87.10;;;;;;4946865;29;20043;-54
2022/07/29 09:58:27;;;;;;;12.80;2.03;;;22.00;86.00;;;;;;4952083;29;20071;-50
2022/07/29 10:00:56;;;;;;;7.18;1.67;;;22.10;86.70;;;;;;4935161;29;20051;-53
2022/07/29 10:03:23;;;;;;;9.35;2.08;;;22.10;85.70;;;;;;4951197;29;20043;-52
2022/07/29 10:06:10;;;;;;;16.70;2.45;;;22.40;86.80;;;;;;4952241;28;20047;-50
2022/07/29 10:08:37;;;;;;;5.65;1.92;;;22.80;82.40;;;;;;4951138;29;20114;-54
2022/07/29 10:11:22;;;;;;;6.55;1.85;;;23.30;85.30;;;;;;4951881;28;20146;-53
2022/07/29 10:13:49;;;;;;;8.43;2.20;;;23.60;79.20;;;;;;4951153;29;20094;-55
2022/07/29 10:16:16;;;;;;;5.50;1.73;;;23.90;80.50;;;;;;4952116;28;20053;-54
2022/07/29 10:18:43;;;;;;;10.27;1.67;;;24.10;78.40;;;;;;4951734;28;20073;-53
2022/07/29 10:21:10;;;;;;;10.38;3.03;;;24.20;76.90;;;;;;4951694;28;20047;-53
2022/07/29 10:23:57;;;;;;;7.15;1.42;;;24.50;76.40;;;;;;4951461;28;20411;-54
2022/07/29 10:26:27;;;;;;;9.57;1.65;;;24.70;74.50;;;;;;4950695;29;20047;-52
2022/07/29 10:28:55;;;;;;;3.95;1.33;;;24.60;73.10;;;;;;4951254;28;20582;-52
2022/07/29 10:31:38;;;;;;;4.75;1.35;;;24.70;70.10;;;;;;4950383;29;20201;-53
2022/07/29 10:34:13;;;;;;;4.35;1.38;;;24.80;70.00;;;;;;4951436;28;20114;-55
2022/07/29 10:36:50;;;;;;;4.25;1.58;;;25.00;68.70;;;;;;4950326;29;20138;-53
2022/07/29 10:39:35;;;;;;;7.00;1.80;;;25.30;66.60;;;;;;4950081;29;20430;-54
2022/07/29 10:42:24;;;;;;;10.00;2.20;;;25.50;68.80;;;;;;4943770;29;20154;-54
2022/07/29 10:45:00;;;;;;;5.28;1.55;;;25.70;63.80;;;;;;4947129;29;20051;-54
2022/07/29 10:47:27;;;;;;;12.77;1.95;;;25.80;67.10;;;;;;4949997;29;20554;-53
2022/07/29 10:50:03;;;;;;;5.30;1.50;;;25.60;62.20;;;;;;4949309;29;20053;-59
2022/07/29 10:52:52;;;;;;;11.13;1.38;;;25.20;62.10;;;;;;4951246;28;20083;-53
2022/07/29 10:55:38;;;;;;;10.02;1.83;;;24.60;62.50;;;;;;4951238;28;20054;-55
2022/07/29 10:58:16;;;;;;;5.07;1.77;;;24.20;63.50;;;;;;4950991;28;20098;-54
2022/07/29 11:00:47;;;;;;;5.32;1.27;;;24.00;66.20;;;;;;4950651;28;20047;-53
2022/07/29 11:03:46;;;;;;;6.47;1.95;;;23.80;67.20;;;;;;4950583;28;20062;-54
2022/07/29 11:06:16;;;;;;;7.93;2.00;;;23.90;65.30;;;;;;4944874;29;20047;-53
2022/07/29 11:08:43;;;;;;;8.50;1.30;;;23.80;66.20;;;;;;4951074;28;20066;-53
2022/07/29 11:11:18;;;;;;;3.53;1.60;;;23.70;67.80;;;;;;4950963;28;20232;-55
2022/07/29 11:13:51;;;;;;;6.20;1.08;;;23.80;65.90;;;;;;4950528;28;20083;-55
2022/07/29 11:16:21;;;;;;;5.50;1.52;;;23.80;67.40;;;;;;4950506;28;20126;-55
2022/07/29 11:19:13;;;;;;;5.22;1.67;;;23.90;67.20;;;;;;4949695;29;20455;-53
2022/07/29 11:21:46;;;;;;;16.23;2.13;;;24.00;65.30;;;;;;4943384;29;20503;-50
2022/07/29 11:24:33;;;;;;;4.43;1.70;;;24.10;64.90;;;;;;4950315;28;20416;-49
2022/07/29 11:27:14;;;;;;;5.80;1.27;;;24.10;62.60;;;;;;4950533;28;20055;-50
2022/07/29 11:29:52;;;;;;;5.65;1.10;;;24.20;62.10;;;;;;4949079;29;20059;-53
2022/07/29 11:32:19;;;;;;;5.78;1.05;;;24.20;62.50;;;;;;4950263;28;20482;-54
2022/07/29 11:35:09;;;;;;;3.92;1.10;;;24.20;62.60;;;;;;4949966;28;20098;-52
2022/07/29 11:38:07;;;;;;;3.50;1.15;;;24.10;63.50;;;;;;4950350;28;20078;-52
2022/07/29 11:40:36;;;;;;;5.30;1.20;;;24.10;63.20;;;;;;4950208;28;20054;-54
2022/07/29 11:43:03;;;;;;;6.07;1.50;;;24.10;63.00;;;;;;4933200;29;20087;-53
2022/07/29 11:45:45;;;;;;;4.43;1.33;;;24.10;63.20;;;;;;4948806;29;20514;-55
2022/07/29 11:48:17;;;;;;;5.75;1.17;;;24.20;60.30;;;;;;4950064;28;20114;-53
2022/07/29 11:50:58;;;;;;;6.63;1.65;;;24.20;61.90;;;;;;4950230;28;20061;-59
2022/07/29 11:53:25;;;;;;;5.50;1.95;;;24.30;62.90;;;;;;4948638;29;20046;-53
2022/07/29 11:55:58;;;;;;;6.78;1.30;;;24.30;62.50;;;;;;4948552;29;20049;-58
2022/07/29 11:58:25;;;;;;;8.18;1.25;;;24.40;62.10;;;;;;4932685;29;20051;-56
2022/07/29 12:00:52;;;;;;;8.73;1.48;;;24.40;61.80;;;;;;4948820;29;20109;-56
2022/07/29 12:03:39;;;;;;;7.05;2.65;;;24.50;61.90;;;;;;4949687;28;20053;-56
2022/07/29 12:06:15;;;;;;;4.32;1.58;;;24.40;61.90;;;;;;4949697;28;20128;-56
2022/07/29 12:08:44;;;;;;;9.02;1.80;;;24.60;60.70;;;;;;4947765;29;20495;-56
2022/07/29 12:11:18;;;;;;;3.88;1.10;;;24.60;61.50;;;;;;4949794;28;20039;-52
2022/07/29 12:13:47;;;;;;;8.13;1.98;;;24.70;60.20;;;;;;4952572;28;20058;-53
2022/07/29 12:16:15;;;;;;;7.85;1.90;;;24.80;60.90;;;;;;4953941;28;20043;-52
2022/07/29 12:18:58;;;;;;;9.40;2.05;;;24.90;60.90;;;;;;4953739;28;20094;-52
2022/07/29 12:21:25;;;;;;;10.73;1.40;;;25.00;59.80;;;;;;4953709;28;20479;-55
2022/07/29 12:23:55;;;;;;;4.82;1.23;;;25.10;60.50;;;;;;4953699;28;20050;-54
2022/07/29 12:26:27;;;;;;;7.18;1.58;;;25.20;60.10;;;;;;4953372;28;20047;-53
2022/07/29 12:28:54;;;;;;;3.65;1.27;;;25.20;59.90;;;;;;4952228;29;20075;-54
2022/07/29 12:31:22;;;;;;;9.10;1.52;;;25.00;59.10;;;;;;4952149;29;20058;-52
2022/07/29 12:34:09;;;;;;;5.30;1.98;;;25.10;58.70;;;;;;4946950;28;20067;-52
2022/07/29 12:36:36;;;;;;;6.97;1.65;;;25.20;59.30;;;;;;4953431;28;20570;-54
2022/07/29 12:39:04;;;;;;;15.73;2.20;;;25.30;59.10;;;;;;4952016;29;20074;-55
2022/07/29 12:41:31;;;;;;;5.80;1.10;;;25.40;58.70;;;;;;4952441;29;20078;-54
2022/07/29 12:43:57;;;;;;;5.75;1.35;;;25.40;58.60;;;;;;4953358;28;20097;-53
2022/07/29 12:46:24;;;;;;;9.55;1.50;;;25.40;58.40;;;;;;4953529;28;20502;-51
2022/07/29 12:48:56;;;;;;;4.70;1.38;;;25.50;58.20;;;;;;4952758;29;20479;-51
2022/07/29 12:51:38;;;;;;;5.35;1.50;;;25.50;58.20;;;;;;4953127;28;20156;-54
2022/07/29 12:54:14;;;;;;;5.32;1.42;;;25.60;56.50;;;;;;4951896;29;20094;-50
2022/07/29 12:56:43;;;;;;;5.03;1.30;;;25.70;56.50;;;;;;4953164;28;20545;-52
2022/07/29 12:59:21;;;;;;;4.70;1.00;;;25.70;57.10;;;;;;4952617;28;20047;-54
2022/07/29 13:01:49;;;;;;;9.98;1.50;;;25.60;55.60;;;;;;4953130;28;20134;-54
2022/07/29 13:04:30;;;;;;;2.92;1.38;;;25.70;57.20;;;;;;4952683;28;20094;-54
2022/07/29 13:07:06;;;;;;;9.05;2.35;;;25.70;54.90;;;;;;4953141;28;20475;-53
2022/07/29 13:09:45;;;;;;;5.15;1.30;;;25.80;56.00;;;;;;4952572;29;20119;-55
2022/07/29 13:12:13;;;;;;;11.15;1.70;;;25.90;56.70;;;;;;4953016;29;20082;-54